createdAt,value
2022-10-01T04:05:01.532Z,101214.19
2022-10-01T04:07:29.939Z,101212.28
2022-10-01T04:09:57.287Z,101224.31
2022-10-01T04:12:24.996Z,101220.88
2022-10-01T04:14:52.299Z,101213.09
2022-10-01T04:17:20.777Z,101219.56
2022-10-01T04:19:48.305Z,101212.06
2022-10-01T04:22:15.586Z,101209.97
2022-10-01T04:24:42.856Z,101218.31
2022-10-01T04:27:10.617Z,101206.06
2022-10-01T04:29:40.238Z,101218.97
2022-10-01T04:32:07.897Z,101216.72
2022-10-01T04:34:53.744Z,101220.06
2022-10-01T04:37:22.852Z,101217.84
2022-10-01T04:39:50.830Z,101216.03
2022-10-01T04:42:18.232Z,101202.09
2022-10-01T04:44:45.484Z,101199.59
2022-10-01T04:47:12.874Z,101198.09
2022-10-01T04:49:40.195Z,101197.44
2022-10-01T04:52:08.401Z,101204.53
2022-10-01T04:54:36.203Z,101198.34
2022-10-01T04:57:03.839Z,101195.78
2022-10-01T04:59:32.031Z,101203.59
2022-10-01T05:01:59.469Z,101206.19
2022-10-01T05:04:27.532Z,101208.72
2022-10-01T05:06:56.289Z,101207.38
2022-10-01T05:09:23.575Z,101215.63
2022-10-01T05:11:52.125Z,101221.09
2022-10-01T05:14:20.737Z,101226.97
2022-10-01T05:16:48.196Z,101226.97
2022-10-01T05:19:16.271Z,101223.69
2022-10-01T05:21:43.905Z,101230.81
2022-10-01T05:24:11.399Z,101241.78
2022-10-01T05:26:38.982Z,101248.75
2022-10-01T05:29:06.836Z,101244.81
2022-10-01T05:31:34.881Z,101251.59
2022-10-01T05:34:02.877Z,101243.38
2022-10-01T05:36:30.264Z,101249.31
2022-10-01T05:38:57.588Z,101248.22
2022-10-01T05:41:24.860Z,101250.56
2022-10-01T05:43:52.188Z,101259.38
2022-10-01T05:46:20.078Z,101258.81
2022-10-01T05:48:50.236Z,101263.25
2022-10-01T05:51:18.490Z,101266.84
2022-10-01T05:53:50.500Z,101272.13
2022-10-01T05:56:17.926Z,101266.22
2022-10-01T05:58:47.008Z,101264.56
2022-10-01T06:01:14.857Z,101254.47
2022-10-01T06:03:42.922Z,101264.78
2022-10-01T06:06:10.269Z,101269.41
2022-10-01T06:08:40.461Z,101277.84
2022-10-01T06:11:08.287Z,101267.97
2022-10-01T06:13:36.208Z,101280.78
2022-10-01T06:16:03.717Z,101277.03
2022-10-01T06:18:31.160Z,101279.31
2022-10-01T06:20:59.127Z,101278.09
2022-10-01T06:23:26.554Z,101278.47
2022-10-01T06:25:54.687Z,101281.41
2022-10-01T06:28:22.372Z,101282.69
2022-10-01T06:30:51.452Z,101282.91
2022-10-01T06:33:19.599Z,101284.78
2022-10-01T06:35:49.782Z,101279.13
2022-10-01T06:38:22.154Z,101275.78
2022-10-01T06:40:56.773Z,101281.66
2022-10-01T06:43:26.236Z,101285.03
2022-10-01T06:45:54.292Z,101283.97
2022-10-01T06:48:22.081Z,101291.75
2022-10-01T06:50:52.495Z,101302.31
2022-10-01T06:53:19.968Z,101294.06
2022-10-01T06:55:47.728Z,101288.81
2022-10-01T06:58:18.373Z,101289.91
2022-10-01T07:00:46.884Z,101282.72
2022-10-01T07:03:16.820Z,101279.16
2022-10-01T07:05:44.724Z,101291.78
2022-10-01T07:08:13.083Z,101295.75
2022-10-01T07:10:41.507Z,101306.88
2022-10-01T07:13:16.705Z,101302.56
2022-10-01T07:15:45.254Z,101307.81
2022-10-01T07:18:13.815Z,101311.50
2022-10-01T07:20:41.428Z,101295.28
2022-10-01T07:23:11.988Z,101310.72
2022-10-01T07:25:40.926Z,101307.41
2022-10-01T07:28:16.318Z,101298.34
2022-10-01T07:30:57.828Z,101297.00
2022-10-01T07:33:25.230Z,101294.47
2022-10-01T07:35:52.643Z,101295.28
2022-10-01T07:38:20.002Z,101304.38
2022-10-01T07:40:51.760Z,101308.56
2022-10-01T07:43:19.147Z,101311.22
2022-10-01T07:45:50.082Z,101315.41
2022-10-01T07:48:19.313Z,101320.53
2022-10-01T07:50:46.581Z,101320.38
2022-10-01T07:53:14.656Z,101324.31
2022-10-01T07:55:42.384Z,101339.31
2022-10-01T07:58:09.875Z,101334.63
2022-10-01T08:00:38.221Z,101327.88
2022-10-01T08:03:06.659Z,101320.84
2022-10-01T08:05:36.348Z,101331.94
2022-10-01T08:08:07.138Z,101347.44
2022-10-01T08:10:36.980Z,101344.09
2022-10-01T08:13:16.564Z,101346.72
2022-10-01T08:15:46.229Z,101338.72
2022-10-01T08:18:14.659Z,101350.88
2022-10-01T08:20:42.516Z,101349.16
2022-10-01T08:23:12.717Z,101346.72
2022-10-01T08:25:42.251Z,101344.53
2022-10-01T08:28:11.189Z,101337.50
2022-10-01T08:30:41.905Z,101343.94
2022-10-01T08:33:13.489Z,101346.56
2022-10-01T08:35:41.805Z,101341.38
2022-10-01T08:38:11.009Z,101343.72
2022-10-01T08:40:47.228Z,101342.91
2022-10-01T08:43:36.600Z,101333.38
2022-10-01T08:46:10.937Z,101335.56
2022-10-01T08:48:57.531Z,101330.41
2022-10-01T08:51:44.015Z,101326.19
2022-10-01T08:54:28.528Z,101337.66
2022-10-01T08:57:00.053Z,101335.28
2022-10-01T08:59:43.845Z,101338.53
2022-10-01T09:02:17.878Z,101332.06
2022-10-01T09:04:47.004Z,101334.31
2022-10-01T09:07:29.676Z,101331.25
2022-10-01T09:10:04.509Z,101339.59
2022-10-01T09:12:42.256Z,101343.16
2022-10-01T09:15:10.280Z,101346.00
2022-10-01T09:18:14.068Z,101336.97
2022-10-01T09:20:47.593Z,101331.13
2022-10-01T09:23:19.923Z,101337.66
2022-10-01T09:25:50.724Z,101337.97
2022-10-01T09:28:33.317Z,101324.91
2022-10-01T09:31:15.377Z,101321.66
2022-10-01T09:33:50.992Z,101321.25
2022-10-01T09:36:39.987Z,101326.22
2022-10-01T09:39:18.915Z,101321.03
2022-10-01T09:41:46.849Z,101324.19
2022-10-01T09:44:18.855Z,101309.50
2022-10-01T09:46:47.182Z,101294.94
2022-10-01T09:49:45.624Z,101292.94
2022-10-01T09:52:20.032Z,101296.50
2022-10-01T09:54:57.757Z,101305.84
2022-10-01T09:57:31.898Z,101295.53
2022-10-01T10:00:10.407Z,101293.44
2022-10-01T10:02:48.780Z,101304.09
2022-10-01T10:05:23.492Z,101297.44
2022-10-01T10:07:56.089Z,101302.31
2022-10-01T10:10:28.809Z,101297.06
2022-10-01T10:13:01.026Z,101299.22
2022-10-01T10:15:32.594Z,101290.47
2022-10-01T10:18:20.393Z,101291.72
2022-10-01T10:20:55.244Z,101293.59
2022-10-01T10:23:26.498Z,101297.00
2022-10-01T10:26:02.794Z,101289.34
2022-10-01T10:28:48.245Z,101277.81
2022-10-01T10:31:18.916Z,101280.66
2022-10-01T10:33:53.252Z,101270.03
2022-10-01T10:36:25.904Z,101258.84
2022-10-01T10:38:53.829Z,101254.50
2022-10-01T10:41:26.532Z,101256.97
2022-10-01T10:43:59.046Z,101264.34
2022-10-01T10:46:32.193Z,101257.94
2022-10-01T10:49:18.520Z,101253.72
2022-10-01T10:51:48.680Z,101264.63
2022-10-01T10:54:39.993Z,101258.50
2022-10-01T10:57:21.189Z,101256.00
2022-10-01T11:00:18.897Z,101273.06
2022-10-01T11:02:57.098Z,101288.13
2022-10-01T11:05:32.072Z,101286.69
2022-10-01T11:08:05.884Z,101269.97
2022-10-01T11:11:07.436Z,101277.47
2022-10-01T11:13:39.195Z,101278.88
2022-10-01T11:16:34.120Z,101285.91
2022-10-01T11:19:23.630Z,101271.34
2022-10-01T11:22:36.483Z,101272.25
2022-10-01T11:25:57.524Z,101267.13
2022-10-01T11:28:44.299Z,101261.84
2022-10-01T11:31:31.547Z,101257.84
2022-10-01T11:34:11.436Z,101263.16
2022-10-01T11:36:45.422Z,101259.78
2022-10-01T11:39:17.519Z,101251.13
2022-10-01T11:41:53.337Z,101248.22
2022-10-01T11:45:02.376Z,101244.56
2022-10-01T11:47:44.184Z,101247.78
2022-10-01T11:50:38.485Z,101251.53
2022-10-01T11:53:17.025Z,101242.56
2022-10-01T11:56:10.890Z,101236.13
2022-10-01T11:58:54.040Z,101236.41
2022-10-01T12:01:54.157Z,101225.75
2022-10-01T12:04:37.910Z,101235.56
2022-10-01T12:07:14.236Z,101228.34
2022-10-01T12:09:53.114Z,101217.63
2022-10-01T12:12:46.672Z,101223.84
2022-10-01T12:15:29.284Z,101219.56
2022-10-01T12:18:06.456Z,101209.91
2022-10-01T12:20:46.123Z,101201.53
2022-10-01T12:23:19.964Z,101208.38
2022-10-01T12:26:27.603Z,101202.38
2022-10-01T12:29:13.524Z,101198.84
2022-10-01T12:31:59.182Z,101199.00
2022-10-01T12:34:54.783Z,101183.66
2022-10-01T12:37:35.211Z,101179.44
2022-10-01T12:40:11.979Z,101184.44
2022-10-01T12:42:42.904Z,101177.13
2022-10-01T12:45:40.634Z,101184.56
2022-10-01T12:48:33.118Z,101175.06
2022-10-01T12:51:13.361Z,101166.88
2022-10-01T12:53:54.523Z,101167.28
2022-10-01T12:56:30.934Z,101165.25
2022-10-01T12:59:09.540Z,101155.97
2022-10-01T13:01:47.360Z,101148.72
2022-10-01T13:04:33.811Z,101139.25
2022-10-01T13:07:14.007Z,101135.53
2022-10-01T13:10:07.377Z,101132.72
2022-10-01T13:12:45.015Z,101120.09
2022-10-01T13:15:28.027Z,101111.69
2022-10-01T13:18:02.112Z,101099.53
2022-10-01T13:20:41.309Z,101105.25
2022-10-01T13:23:22.307Z,101107.13
2022-10-01T13:26:12.115Z,101103.66
2022-10-01T13:28:49.116Z,101094.59
2022-10-01T13:31:21.046Z,101108.56
2022-10-01T13:33:57.212Z,101087.91
2022-10-01T13:36:34.418Z,101085.06
2022-10-01T13:39:02.933Z,101098.47
2022-10-01T13:41:34.462Z,101096.81
2022-10-01T13:44:17.031Z,101068.84
2022-10-01T13:46:55.068Z,100962.91
2022-10-01T13:49:32.001Z,100925.38
2022-10-01T13:52:03.082Z,100892.88
2022-10-01T13:54:40.241Z,100867.75
2022-10-01T13:57:31.826Z,100864.41
2022-10-01T14:00:17.986Z,100886.50
2022-10-01T14:03:18.127Z,100910.16
2022-10-01T14:05:48.123Z,100893.09
2022-10-01T14:08:29.252Z,100884.28
2022-10-01T14:11:28.008Z,100879.19
2022-10-01T14:14:22.921Z,100896.41
2022-10-01T14:16:54.160Z,100898.44
2022-10-01T14:19:24.524Z,100931.00
2022-10-01T14:22:03.996Z,100931.81
2022-10-01T14:24:47.583Z,100943.56
2022-10-01T14:27:18.084Z,100963.72
2022-10-01T14:29:56.983Z,100969.03
2022-10-01T14:32:50.933Z,100995.91
2022-10-01T14:35:37.142Z,101016.94
2022-10-01T14:38:12.968Z,101027.44
2022-10-01T14:40:45.688Z,101031.34
2022-10-01T14:43:25.160Z,101031.00
2022-10-01T14:45:56.913Z,101042.69
2022-10-01T14:48:27.076Z,101034.31
2022-10-01T14:51:00.133Z,101027.59
2022-10-01T14:53:34.534Z,101032.94
2022-10-01T14:56:09.889Z,101046.16
2022-10-01T14:59:02.687Z,101056.53
2022-10-01T15:01:42.988Z,101061.03
2022-10-01T15:04:22.859Z,101066.09
2022-10-01T15:06:52.012Z,101057.75
2022-10-01T15:09:21.008Z,101049.81
2022-10-01T15:11:51.311Z,101041.25
2022-10-01T15:14:42.431Z,101045.44
2022-10-01T15:17:53.888Z,101047.38
2022-10-01T15:20:39.297Z,101052.34
2022-10-01T15:23:08.959Z,101049.84
2022-10-01T15:25:59.465Z,101049.97
2022-10-01T15:29:00.055Z,101052.88
2022-10-01T15:31:49.393Z,101057.16
2022-10-01T15:34:21.341Z,101057.81
2022-10-01T15:37:39.878Z,101051.09
2022-10-01T15:40:21.899Z,101051.19
2022-10-01T15:43:10.082Z,101049.00
2022-10-01T15:45:38.928Z,101049.19
2022-10-01T15:48:29.996Z,101049.44
2022-10-01T15:51:04.337Z,101046.72
2022-10-01T15:53:35.969Z,101047.38
2022-10-01T15:56:10.756Z,101057.63
2022-10-01T15:58:46.270Z,101047.19
2022-10-01T16:01:27.496Z,101042.50
2022-10-01T16:04:08.252Z,101038.97
2022-10-01T16:06:41.900Z,101031.47
2022-10-01T16:09:30.954Z,101035.50
2022-10-01T16:12:04.613Z,101050.97
2022-10-01T16:14:44.952Z,101046.63
2022-10-01T16:17:17.164Z,101053.41
2022-10-01T16:19:48.671Z,101048.63
2022-10-01T16:22:19.425Z,101051.22
2022-10-01T16:24:50.089Z,101041.19
2022-10-01T16:27:23.681Z,101059.19
2022-10-01T16:30:05.629Z,101078.19
2022-10-01T16:32:34.339Z,101068.19
2022-10-01T16:35:16.459Z,101078.72
2022-10-01T16:37:45.998Z,101077.91
2022-10-01T16:40:16.405Z,101063.44
2022-10-01T16:42:47.156Z,101064.56
2022-10-01T16:45:24.474Z,101053.91
2022-10-01T16:47:53.724Z,101047.72
2022-10-01T16:50:23.608Z,101056.25
2022-10-01T16:52:56.074Z,101072.44
2022-10-01T16:55:35.884Z,101070.38
2022-10-01T16:58:04.528Z,101065.22
2022-10-01T17:00:35.785Z,101060.09
2022-10-01T17:03:09.930Z,101075.25
2022-10-01T17:05:37.654Z,101094.38
2022-10-01T17:08:13.034Z,101095.09
2022-10-01T17:10:45.297Z,101108.88
2022-10-01T17:13:15.476Z,101113.69
2022-10-01T17:15:43.642Z,101125.22
2022-10-01T17:18:13.935Z,101120.66
2022-10-01T17:20:41.285Z,101123.50
2022-10-01T17:23:10.997Z,101115.41
2022-10-01T17:25:40.139Z,101113.97
2022-10-01T17:28:11.631Z,101115.66
2022-10-01T17:30:43.050Z,101110.53
2022-10-01T17:33:15.957Z,101111.59
2022-10-01T17:35:45.752Z,101113.44
2022-10-01T17:38:14.436Z,101110.50
2022-10-01T17:40:44.402Z,101109.66
2022-10-01T17:43:13.773Z,101125.66
2022-10-01T17:45:43.364Z,101149.00
2022-10-01T17:48:11.904Z,101147.13
2022-10-01T17:50:43.511Z,101149.94
2022-10-01T17:53:12.916Z,101156.28
2022-10-01T17:55:41.979Z,101156.03
2022-10-01T17:58:10.911Z,101151.50
2022-10-01T18:00:41.241Z,101158.84
2022-10-01T18:03:09.999Z,101161.72
2022-10-01T18:05:38.258Z,101176.47
2022-10-01T18:08:06.319Z,101180.28
2022-10-01T18:10:35.221Z,101189.75
2022-10-01T18:13:04.132Z,101196.16
2022-10-01T18:15:32.965Z,101189.00
2022-10-01T18:20:51.404Z,101199.63
2022-10-01T18:23:21.153Z,101196.16
2022-10-01T18:25:50.285Z,101214.72
2022-10-01T18:28:19.077Z,101207.13
2022-10-01T18:30:48.628Z,101212.19
2022-10-01T18:33:16.251Z,101220.06
2022-10-01T18:35:44.313Z,101231.31
2022-10-01T18:38:27.435Z,101219.19
2022-10-01T18:43:47.307Z,101229.38
2022-10-01T18:46:18.516Z,101218.97
2022-10-01T18:49:13.627Z,101234.09
2022-10-01T18:51:52.409Z,101237.19
2022-10-01T18:54:37.564Z,101241.59
2022-10-01T18:57:19.792Z,101251.47
2022-10-01T18:59:59.793Z,101250.72
2022-10-01T19:03:14.871Z,101247.72
2022-10-01T19:06:12.077Z,101242.94
2022-10-01T19:09:01.191Z,101239.19
2022-10-01T19:11:54.235Z,101248.84
2022-10-01T19:14:45.859Z,101246.88
2022-10-01T19:17:39.884Z,101252.75
2022-10-01T19:20:16.877Z,101253.34
2022-10-01T19:23:00.862Z,101265.47
2022-10-01T19:25:43.715Z,101258.75
2022-10-01T19:28:37.514Z,101278.69
2022-10-01T20:07:54.914Z,101285.38
2022-10-01T20:10:41.780Z,101305.53
2022-10-01T20:13:10.202Z,101300.22
2022-10-01T20:15:53.483Z,101296.38
2022-10-01T20:19:05.105Z,101306.13
2022-10-01T20:21:44.781Z,101300.31
2022-10-01T20:24:39.633Z,101306.81
2022-10-01T20:27:13.178Z,101301.16
2022-10-01T20:29:47.397Z,101318.25
2022-10-01T20:32:33.216Z,101326.66
2022-10-01T20:35:29.777Z,101346.31
2022-10-01T20:38:15.038Z,101352.78
2022-10-01T20:40:49.675Z,101360.94
2022-10-01T20:43:23.926Z,101359.53
2022-10-01T20:45:52.978Z,101359.63
2022-10-01T20:48:32.534Z,101361.47
2022-10-01T20:51:22.619Z,101363.34
2022-10-01T20:53:55.880Z,101353.28
2022-10-01T20:56:31.756Z,101363.97
2022-10-01T20:59:34.926Z,101349.97
2022-10-01T21:02:16.408Z,101354.06
2022-10-01T21:04:52.110Z,101356.44
2022-10-01T21:07:47.860Z,101358.19
2022-10-01T21:13:43.459Z,101368.88
2022-10-01T21:16:28.333Z,101360.88
2022-10-01T21:19:14.229Z,101353.44
2022-10-01T21:21:57.833Z,101344.84
2022-10-01T21:24:53.773Z,101355.91
2022-10-01T21:27:45.437Z,101361.56
2022-10-01T21:30:19.972Z,101366.91
2022-10-01T21:33:08.840Z,101369.19
2022-10-01T21:35:47.406Z,101364.69
2022-10-01T21:38:28.541Z,101383.16
2022-10-01T21:41:34.628Z,101391.75
2022-10-01T21:44:37.832Z,101377.44
2022-10-01T21:47:58.428Z,101361.63
2022-10-01T21:51:18.375Z,101353.41
2022-10-01T21:54:10.650Z,101350.19
2022-10-01T21:57:12.051Z,101349.00
2022-10-01T21:59:57.951Z,101353.53
2022-10-01T22:02:44.625Z,101353.31
2022-10-01T22:05:34.831Z,101346.84
2022-10-01T22:08:23.822Z,101354.38
2022-10-01T22:10:55.685Z,101372.88
2022-10-01T22:13:28.597Z,101364.75
2022-10-01T22:16:01.871Z,101352.28
2022-10-01T22:18:35.951Z,101350.47
2022-10-01T22:21:11.456Z,101375.25
2022-10-01T22:23:44.843Z,101389.66
2022-10-01T22:26:19.089Z,101399.56
2022-10-01T22:28:51.897Z,101401.94
2022-10-01T22:31:25.190Z,101400.25
2022-10-01T22:33:59.663Z,101398.34
2022-10-01T22:36:41.780Z,101399.84
2022-10-01T22:39:18.022Z,101392.44
2022-10-01T22:41:51.914Z,101394.13
2022-10-01T22:44:21.038Z,101399.00
2022-10-01T22:47:19.150Z,101398.16
2022-10-01T22:50:05.467Z,101405.53
2022-10-01T22:52:59.409Z,101415.66
2022-10-01T22:55:53.124Z,101411.03
2022-10-01T22:58:42.268Z,101419.03
2022-10-01T23:01:36.889Z,101403.47
2022-10-01T23:04:35.477Z,101418.22
2022-10-01T23:07:14.819Z,101413.38
2022-10-01T23:09:54.021Z,101420.31
2022-10-01T23:12:30.722Z,101421.38
2022-10-01T23:15:16.689Z,101419.06
2022-10-01T23:17:59.436Z,101419.47
2022-10-01T23:20:29.658Z,101428.75
2022-10-01T23:23:32.076Z,101432.97
2022-10-01T23:26:36.116Z,101434.00
2022-10-01T23:29:32.517Z,101441.19
2022-10-01T23:32:21.584Z,101461.63
2022-10-01T23:35:04.108Z,101451.50
2022-10-01T23:38:21.227Z,101460.56
2022-10-01T23:40:51.831Z,101455.91
2022-10-01T23:43:19.154Z,101450.84
2022-10-01T23:45:54.539Z,101452.34
2022-10-01T23:48:38.743Z,101465.41
2022-10-01T23:51:24.158Z,101467.94
2022-10-01T23:54:22.233Z,101460.16
2022-10-01T23:56:55.671Z,101464.97
2022-10-01T23:59:32.798Z,101458.03
